Cold Bay, AK

8:42 AM AKDT on July 25, 2014 (GMT -0800)
Cold Bay (PACD) Elev 102 ft | 55.22 °N, 162.73 °W | Change Station

Current weather conditions updated 31 minutes ago

Overcast
Overcast
53 °F
Feels Like 53 °F
N
14
Wind Variable Wind from NW

Today is forecast to be nearly the same temperature as yesterday.

Today
High -- | Low -- °F
--% Chance of Precip.
Yesterday
High -- | Low -- °F
Precip. -- in
6:47 AM 11:06 PM
Waning Crescent, 1% visible
Pressure 30.11 in
Visibility 10.0 miles
Clouds Overcast 1500 ft
Dew Point 49 °F
Humidity 86%
Rainfall 0.03 in
Snow Depth Not available.
UV 0 out of 12
Pollen Not available.
Air Quality Not available.
Flu Activity Not available.
SPECI PACD 251611Z 31012KT 10SM OVC015 12/09 A3011 RMK AO2 T01170094

More Conditions Fewer Conditions

Pressure 30.11 in
Visibility 10.0 miles
Clouds Overcast 1500 ft
Dew Point 49 °F
Humidity 86%
Rainfall 0.03 in
Snow Depth Not available.
UV 0 out of 12
Pollen Not available.
Air Quality Not available.
Flu Activity Not available.
SPECI PACD 251611Z 31012KT 10SM OVC015 12/09 A3011 RMK AO2 T01170094

More Conditions Fewer Conditions

10-Day Weather Forecast

Almanac

Astronomy

Jul. 25, 2014 Rise Set
Actual Time 6:47 AM AKDT 11:06 PM AKDT
Civil Twilight 5:57 AM AKDT 11:55 PM AKDT
Nautical Twilight 4:41 AM AKDT 1:10 AM AKDT
Astronomical Twilight 3:29 AM AKDT 2:24 AM AKDT
Moon 6:05 AM AKDT 9:59 PM AKDT
Length of Visible Light 17h 57m
Length of Day
16h 19m
Tomorrow will be 3m 25s shorter.
Waning Crescent, 1% of the Moon is Illuminated
Today
Waning Crescent
Jul 26
New
Aug 3
First Quarter
Aug 10
Full
Aug 17
Last Quarter

Today's Extremes

State Highs State Lows

Community

WunderPhotos

Upload Photos

1,737,363 photos uploaded!

Nearby

Snow Depth

Station Depth Elevation
Port Graham 0 in 300 ft
Mcneil Canyon 1 in 1320 ft
Nuka Glacier 1 in 1250 ft
MF Bradley River 26 in 2300 ft
Cooper Lake 11 in 1200 ft

Earthquake Activity

City Distance Mag. Time & Date
No recent earthquake activity has been reported nearby.
Minimum magnitude displayed is 2.5.

Coastal Water Temperatures

Place Temperature
No Stations Reporting

Nearby Weather Stations

Station Location Temp. Dew Point Humidity Wind Precip. Elev Updated Type
HADS RUSSELL C NR COLD BAY AK , Cold Bay, AK 51 °F - - North  at  - 0.00 in / hr 66 ft 7:00 AM AKDT MADIS

Show More Stations Show Fewer Stations